createdAt,value
2023-04-01T00:19:07.084Z,78.80
2023-04-01T00:42:07.694Z,45.50
2023-04-01T00:43:38.547Z,43.70
2023-04-01T00:44:04.521Z,64.00
2023-04-01T00:48:57.682Z,47.10
2023-04-01T00:58:33.880Z,46.00
2023-04-01T00:59:35.858Z,61.00
2023-04-01T01:00:36.156Z,52.20
2023-04-01T01:01:36.378Z,47.70
2023-04-01T01:06:55.985Z,46.00
2023-04-01T01:12:07.231Z,48.30
2023-04-01T01:13:08.993Z,47.30
2023-04-01T01:14:09.187Z,56.40
2023-04-01T01:15:09.361Z,49.80
2023-04-01T01:16:09.303Z,53.00
2023-04-01T01:17:10.648Z,48.40
2023-04-01T01:18:09.430Z,47.80
2023-04-01T11:46:53.594Z,43.60
2023-04-01T11:47:54.584Z,228.50
2023-04-01T12:17:53.820Z,169.20
2023-04-01T12:18:55.465Z,89.40
2023-04-01T12:28:26.329Z,181.10
2023-04-01T12:29:27.836Z,68.10
2023-04-01T12:30:27.632Z,48.10
2023-04-01T12:31:27.491Z,62.80
2023-04-01T12:32:28.209Z,58.90
2023-04-01T12:33:27.615Z,66.30
2023-04-01T12:34:28.007Z,88.80
2023-04-01T12:35:27.616Z,76.40
2023-04-01T12:36:27.782Z,62.70
2023-04-01T12:37:27.933Z,61.00
2023-04-01T12:38:27.749Z,99.50
2023-04-01T12:39:27.839Z,95.90
2023-04-01T12:40:27.671Z,88.20
2023-04-01T12:41:27.295Z,95.60
2023-04-01T12:42:27.496Z,81.70
2023-04-01T12:43:27.690Z,132.60
2023-04-01T12:44:28.019Z,119.80
2023-04-01T12:45:27.368Z,119.20
2023-04-01T12:46:27.998Z,111.20
2023-04-01T12:47:27.932Z,134.30
2023-04-01T12:48:28.213Z,130.40
2023-04-01T12:49:28.585Z,111.20
2023-04-01T12:50:27.546Z,108.80
2023-04-01T12:51:27.764Z,95.40
2023-04-01T12:52:28.058Z,136.20
2023-04-01T12:53:27.482Z,127.60
2023-04-01T12:54:27.322Z,72.10
2023-04-01T12:55:27.439Z,63.60
2023-04-01T12:56:27.868Z,67.20
2023-04-01T12:57:27.967Z,71.70
2023-04-01T12:58:27.763Z,98.40
2023-04-01T12:59:27.721Z,91.60
2023-04-01T13:00:27.298Z,96.60
2023-04-01T13:01:27.384Z,90.90
2023-04-01T13:02:27.321Z,73.60
2023-04-01T13:03:27.537Z,88.10
2023-04-01T13:04:27.454Z,132.80
2023-04-01T13:05:27.883Z,147.60
2023-04-01T13:06:27.610Z,154.70
2023-04-01T13:07:27.902Z,93.10
2023-04-01T13:08:27.801Z,113.80
2023-04-01T13:09:27.778Z,85.90
2023-04-01T13:10:27.645Z,137.70
2023-04-01T13:11:27.656Z,120.30
2023-04-01T13:12:27.334Z,134.90
2023-04-01T13:13:27.862Z,142.70
2023-04-01T13:14:31.923Z,90.90
2023-04-01T13:15:29.689Z,68.00
2023-04-01T13:16:27.287Z,92.30
2023-04-01T13:17:27.272Z,135.70
2023-04-01T13:18:27.824Z,155.80
2023-04-01T13:19:27.775Z,116.20
2023-04-01T13:20:27.305Z,107.20
2023-04-01T13:21:27.215Z,96.20
2023-04-01T13:22:27.852Z,113.30
2023-04-01T13:23:27.260Z,129.60
2023-04-01T13:24:27.733Z,107.70
2023-04-01T13:25:27.203Z,155.10
2023-04-01T13:26:27.063Z,155.00
2023-04-01T13:27:27.546Z,112.20
2023-04-01T13:28:27.751Z,132.10
2023-04-01T13:29:27.509Z,167.30
2023-04-01T13:30:27.687Z,160.00
2023-04-01T13:31:27.405Z,163.30
2023-04-01T13:32:40.848Z,182.00
2023-04-01T13:33:30.049Z,169.50
2023-04-01T13:34:27.176Z,160.60
2023-04-01T13:35:27.564Z,129.80
2023-04-01T13:36:27.254Z,144.10
2023-04-01T13:37:27.726Z,140.30
2023-04-01T13:38:27.466Z,148.90
2023-04-01T13:39:27.557Z,128.40
2023-04-01T13:40:27.583Z,105.20
2023-04-01T13:41:27.633Z,115.20
2023-04-01T13:42:27.834Z,143.00
2023-04-01T13:43:27.289Z,131.60
2023-04-01T13:44:28.027Z,154.80
2023-04-01T13:45:27.349Z,176.90
2023-04-01T13:46:27.193Z,158.00
2023-04-01T13:47:27.489Z,174.20
2023-04-01T13:48:27.079Z,204.60
2023-04-01T13:49:27.124Z,171.00
2023-04-01T13:50:27.186Z,171.00
2023-04-01T13:51:27.838Z,158.50
2023-04-01T13:52:27.653Z,133.80
2023-04-01T13:53:26.996Z,176.50
2023-04-01T13:54:27.046Z,162.30
2023-04-01T13:55:27.403Z,141.00
2023-04-01T13:56:27.150Z,152.10
2023-04-01T13:57:27.129Z,150.60
2023-04-01T13:58:27.222Z,138.30
2023-04-01T13:59:27.456Z,141.00
2023-04-01T14:00:27.412Z,162.50
2023-04-01T14:01:27.043Z,154.00
2023-04-01T14:02:27.204Z,156.60
2023-04-01T14:03:26.947Z,239.50
2023-04-01T14:04:28.015Z,154.90
2023-04-01T14:05:39.888Z,156.30
2023-04-01T14:06:29.003Z,249.40
2023-04-01T14:07:26.840Z,241.00
2023-04-01T14:08:27.087Z,273.90
2023-04-01T14:09:27.595Z,302.00
2023-04-01T14:10:27.198Z,195.80
2023-04-01T14:11:27.528Z,246.80
2023-04-01T14:12:26.933Z,197.20
2023-04-01T14:13:27.153Z,159.40
2023-04-01T14:14:26.839Z,235.40
2023-04-01T14:15:26.815Z,169.70
2023-04-01T14:16:26.858Z,160.70
2023-04-01T14:17:26.926Z,148.90
2023-04-01T14:18:27.068Z,160.30
2023-04-01T14:19:26.904Z,210.20
2023-04-01T14:20:27.575Z,174.60
2023-04-01T14:21:26.993Z,135.70
2023-04-01T14:22:26.929Z,153.70
2023-04-01T14:23:26.711Z,152.80
2023-04-01T14:24:26.720Z,141.50
2023-04-01T14:25:26.733Z,136.40
2023-04-01T14:26:26.635Z,190.60
2023-04-01T14:27:27.050Z,198.40
2023-04-01T14:28:27.356Z,168.90
2023-04-01T14:29:26.788Z,124.90
2023-04-01T14:30:26.752Z,144.60
2023-04-01T14:31:26.813Z,151.40
2023-04-01T14:32:26.771Z,166.40
2023-04-01T14:33:26.968Z,152.80
2023-04-01T14:34:26.826Z,96.70
2023-04-01T14:35:26.820Z,136.70
2023-04-01T14:36:26.663Z,149.40
2023-04-01T14:37:27.703Z,139.00
2023-04-01T14:38:27.014Z,133.40
2023-04-01T14:39:26.516Z,144.60
2023-04-01T14:40:26.539Z,109.50
2023-04-01T14:41:26.744Z,97.00
2023-04-01T14:42:26.778Z,135.30
2023-04-01T14:43:26.649Z,135.70
2023-04-01T14:44:26.633Z,99.60
2023-04-01T14:45:27.024Z,104.30
2023-04-01T14:46:26.895Z,113.10
2023-04-01T14:47:26.997Z,110.40
2023-04-01T14:48:27.306Z,101.20
2023-04-01T14:49:27.532Z,84.40
2023-04-01T14:50:26.737Z,113.70
2023-04-01T14:51:26.643Z,100.20
2023-04-01T14:52:26.611Z,102.40
2023-04-01T14:53:26.694Z,85.80
2023-04-01T14:54:26.733Z,86.40
2023-04-01T14:55:27.124Z,86.10
2023-04-01T14:56:26.926Z,86.60
2023-04-01T14:57:26.688Z,87.50
2023-04-01T14:58:26.624Z,97.10
2023-04-01T14:59:26.674Z,105.20
2023-04-01T15:00:26.563Z,84.30
2023-04-01T15:01:26.376Z,127.20
2023-04-01T15:02:26.514Z,113.70
2023-04-01T15:03:26.331Z,104.70
2023-04-01T15:04:26.583Z,92.80
2023-04-01T15:05:26.444Z,72.00
2023-04-01T15:06:26.570Z,69.90
2023-04-01T15:07:26.473Z,79.40
2023-04-01T15:08:26.522Z,90.00
2023-04-01T15:09:26.487Z,83.20
2023-04-01T15:10:26.489Z,73.90
2023-04-01T15:11:26.520Z,131.10
2023-04-01T15:12:26.741Z,134.20
2023-04-01T15:13:26.572Z,146.10
2023-04-01T15:14:26.424Z,94.00
2023-04-01T15:15:26.551Z,160.70
2023-04-01T15:16:26.530Z,166.30
2023-04-01T15:17:26.624Z,128.40
2023-04-01T15:18:26.426Z,116.40
2023-04-01T15:19:26.337Z,108.50
2023-04-01T15:20:27.420Z,149.50
2023-04-01T15:21:27.294Z,169.00
2023-04-01T15:22:26.423Z,228.60
2023-04-01T15:23:26.202Z,180.40
2023-04-01T15:24:26.251Z,100.60
2023-04-01T15:25:26.207Z,156.10
2023-04-01T15:26:26.320Z,189.50
2023-04-01T15:27:26.641Z,203.70
2023-04-01T15:28:26.541Z,155.30
2023-04-01T15:29:26.331Z,173.80
2023-04-01T15:30:26.590Z,106.60
2023-04-01T15:31:26.788Z,137.70
2023-04-01T15:32:26.434Z,175.50
2023-04-01T15:33:26.483Z,165.60
2023-04-01T15:34:26.359Z,102.60
2023-04-01T15:35:26.278Z,142.30
2023-04-01T15:36:26.313Z,125.80
2023-04-01T15:37:26.251Z,135.20
2023-04-01T15:38:27.328Z,149.30
2023-04-01T15:39:26.535Z,67.80
2023-04-01T15:40:26.359Z,62.00
2023-04-01T15:41:26.242Z,94.80
2023-04-01T15:42:26.163Z,74.00
2023-04-01T15:43:26.258Z,98.00
2023-04-01T15:44:26.153Z,128.80
2023-04-01T15:45:26.075Z,100.70
2023-04-01T15:46:27.124Z,99.10
2023-04-01T15:47:26.233Z,131.90
2023-04-01T15:48:26.098Z,107.80
2023-04-01T15:49:26.101Z,115.50
2023-04-01T15:50:26.145Z,85.90
2023-04-01T15:51:26.128Z,86.10
2023-04-01T15:52:26.348Z,119.60
2023-04-01T15:53:26.492Z,102.00
2023-04-01T15:54:26.223Z,83.30
2023-04-01T15:55:26.274Z,88.40
2023-04-01T15:56:26.140Z,75.10
2023-04-01T15:57:26.406Z,106.80
2023-04-01T15:58:26.199Z,104.80
2023-04-01T15:59:26.933Z,87.30
2023-04-01T16:00:26.165Z,81.10
2023-04-01T16:01:26.260Z,57.70
2023-04-01T16:02:26.170Z,50.50
2023-04-01T16:03:26.106Z,42.90
2023-04-01T16:04:26.108Z,48.30
2023-04-01T16:05:26.522Z,83.70
2023-04-01T16:06:26.198Z,65.10
2023-04-01T16:07:25.969Z,76.30
2023-04-01T16:08:25.956Z,102.80
2023-04-01T16:09:25.988Z,76.70
2023-04-01T16:10:59.827Z,50.70
2023-04-01T16:11:25.844Z,115.40
2023-04-01T16:12:25.902Z,76.30
2023-04-01T16:13:26.200Z,49.40
2023-04-01T16:14:30.091Z,58.80
2023-04-01T16:15:25.980Z,68.80
2023-04-01T16:16:26.038Z,55.10
2023-04-01T16:17:26.138Z,43.90
2023-04-01T16:18:25.947Z,49.80
2023-04-01T16:19:26.069Z,39.80
2023-04-01T16:20:26.095Z,38.70
2023-04-01T16:21:26.393Z,39.70
2023-04-01T16:22:25.970Z,47.20
2023-04-01T16:23:26.057Z,38.80
2023-04-01T16:24:26.049Z,50.70
2023-04-01T16:25:25.951Z,51.40
2023-04-01T16:26:26.239Z,54.60
2023-04-01T16:27:25.963Z,53.60
2023-04-01T16:28:26.147Z,55.60
2023-04-01T16:29:25.947Z,68.00
2023-04-01T16:30:25.940Z,62.10
2023-04-01T16:31:25.740Z,73.80
2023-04-01T16:32:25.861Z,49.50
2023-04-01T16:33:25.859Z,55.50
2023-04-01T16:34:25.731Z,66.80
2023-04-01T16:35:25.784Z,60.20
2023-04-01T16:36:26.000Z,72.50
2023-04-01T16:37:25.745Z,72.20
2023-04-01T16:38:25.884Z,67.30
2023-04-01T16:39:25.759Z,68.20
2023-04-01T16:40:25.897Z,50.00
2023-04-01T16:41:25.805Z,60.30
2023-04-01T16:42:25.859Z,54.40
2023-04-01T16:43:26.277Z,46.40
2023-04-01T16:44:25.876Z,55.20
2023-04-01T16:45:25.907Z,47.60
2023-04-01T16:46:25.863Z,52.80
2023-04-01T16:47:26.033Z,57.30
2023-04-01T16:48:25.752Z,45.80
2023-04-01T16:49:26.001Z,52.00
2023-04-01T16:50:26.051Z,58.10
2023-04-01T16:51:26.243Z,44.70
2023-04-01T16:52:25.659Z,37.70
2023-04-01T16:53:25.910Z,35.60
2023-04-01T16:54:25.890Z,47.00
2023-04-01T16:55:26.110Z,52.10
2023-04-01T16:56:26.957Z,55.40
2023-04-01T16:57:26.042Z,51.30
2023-04-01T16:58:25.977Z,33.20
2023-04-01T16:59:26.132Z,53.60
2023-04-01T17:00:26.085Z,53.60
2023-04-01T17:01:26.349Z,55.90
2023-04-01T17:02:26.484Z,50.40
2023-04-01T17:03:25.877Z,54.20
2023-04-01T17:04:25.949Z,56.20
2023-04-01T17:05:26.269Z,51.10
2023-04-01T17:06:25.787Z,60.40
2023-04-01T17:07:25.611Z,45.10
2023-04-01T17:08:25.507Z,49.00
2023-04-01T17:09:25.652Z,50.80
2023-04-01T17:10:26.009Z,52.70
2023-04-01T17:11:25.620Z,62.10
2023-04-01T17:12:25.525Z,65.90
2023-04-01T17:13:25.876Z,58.40
2023-04-01T17:14:25.865Z,56.00
2023-04-01T17:15:25.939Z,93.60
2023-04-01T17:16:25.930Z,105.10
2023-04-01T17:17:26.210Z,117.10
2023-04-01T17:18:26.227Z,83.60
2023-04-01T17:19:26.069Z,94.60
2023-04-01T17:20:27.099Z,74.70
2023-04-01T17:21:26.480Z,69.40
2023-04-01T17:22:26.132Z,76.70
2023-04-01T17:23:26.437Z,76.10
2023-04-01T17:24:26.168Z,60.90
2023-04-01T17:25:26.206Z,58.90
2023-04-01T17:26:26.082Z,47.10
2023-04-01T17:27:26.176Z,43.90
2023-04-01T17:28:25.954Z,49.00
2023-04-01T17:29:26.142Z,95.70
2023-04-01T17:30:26.126Z,50.50
2023-04-01T17:31:25.996Z,57.30
2023-04-01T17:32:26.254Z,55.20
2023-04-01T17:33:26.082Z,58.60
2023-04-01T17:34:26.146Z,51.80
2023-04-01T17:35:26.247Z,41.60
2023-04-01T17:36:26.346Z,38.90
2023-04-01T17:37:26.183Z,36.70
2023-04-01T17:38:26.428Z,32.60
2023-04-01T17:42:19.587Z,46.10
2023-04-01T17:43:21.168Z,35.70
2023-04-01T17:44:21.355Z,53.10
2023-04-01T17:45:21.039Z,43.40
2023-04-01T17:46:21.211Z,41.50
2023-04-01T17:47:21.189Z,43.50
2023-04-01T17:48:21.240Z,55.70
2023-04-01T17:49:21.194Z,55.90
2023-04-01T17:50:21.200Z,74.50
2023-04-01T17:51:20.982Z,101.60
2023-04-01T17:52:20.865Z,91.80
2023-04-01T17:53:21.099Z,140.80
2023-04-01T17:54:21.415Z,239.40
2023-04-01T17:55:21.154Z,184.70
2023-04-01T17:56:21.167Z,205.90
2023-04-01T17:57:22.189Z,180.40
2023-04-01T17:58:21.140Z,182.10
2023-04-01T17:59:20.842Z,177.50
2023-04-01T18:00:22.953Z,182.80
2023-04-01T18:01:21.151Z,182.80
2023-04-01T18:02:21.115Z,149.00
2023-04-01T18:03:21.360Z,142.20
2023-04-01T18:04:21.163Z,118.60
2023-04-01T18:05:21.154Z,90.70
2023-04-01T18:06:20.996Z,86.10
2023-04-01T18:07:21.087Z,74.20
2023-04-01T18:08:20.915Z,63.00
2023-04-01T18:09:21.283Z,53.30
2023-04-01T18:10:20.816Z,48.50
2023-04-01T18:11:21.040Z,47.60
2023-04-01T18:12:20.904Z,41.10
2023-04-01T18:13:20.743Z,41.40
2023-04-01T18:14:20.790Z,37.90
2023-04-01T18:15:21.018Z,39.00
2023-04-01T18:16:20.881Z,37.20
2023-04-01T18:17:20.690Z,38.30
2023-04-01T18:18:20.772Z,37.60
2023-04-01T18:19:21.317Z,38.30
2023-04-01T18:20:21.804Z,42.60
2023-04-01T18:21:21.345Z,42.00
2023-04-01T18:22:20.969Z,41.80
2023-04-01T18:23:20.759Z,44.00
2023-04-01T18:24:20.659Z,43.60
2023-04-01T18:25:20.755Z,48.60
2023-04-01T18:26:20.657Z,48.70
2023-04-01T18:27:22.128Z,49.30
2023-04-01T18:28:20.453Z,46.70
2023-04-01T18:29:20.750Z,47.80
2023-04-01T18:30:20.823Z,47.60
2023-04-01T18:31:20.733Z,43.50
2023-04-01T18:32:21.007Z,44.40
2023-04-01T18:33:20.996Z,49.80
2023-04-01T18:34:20.875Z,49.10
2023-04-01T18:35:20.690Z,42.90
2023-04-01T18:36:20.921Z,46.90
2023-04-01T18:37:21.912Z,45.20
2023-04-01T18:38:20.439Z,44.80
2023-04-01T18:39:20.569Z,45.80
2023-04-01T18:40:20.415Z,48.30
2023-04-01T18:41:20.501Z,44.50
2023-04-01T18:42:22.205Z,43.20
2023-04-01T18:43:21.670Z,43.90
2023-04-01T18:44:20.361Z,46.00
2023-04-01T18:45:21.075Z,49.70
2023-04-01T18:46:20.777Z,54.40
2023-04-01T18:47:20.447Z,53.30
2023-04-01T18:48:20.812Z,51.60
2023-04-01T18:49:20.819Z,61.70
2023-04-01T18:50:20.772Z,50.10
2023-04-01T18:51:20.760Z,44.30
2023-04-01T18:52:21.029Z,44.20
2023-04-01T18:53:20.825Z,49.60
2023-04-01T18:54:20.940Z,46.00
2023-04-01T18:55:20.564Z,43.40
2023-04-01T18:56:21.632Z,43.30
2023-04-01T18:57:20.673Z,44.00
2023-04-01T18:58:20.542Z,43.30
2023-04-01T18:59:20.764Z,45.90
2023-04-01T19:00:20.825Z,39.90
2023-04-01T19:01:20.752Z,38.50
2023-04-01T19:02:21.626Z,40.40
2023-04-01T19:03:20.698Z,42.80
2023-04-01T19:04:20.571Z,36.90
2023-04-01T19:05:20.828Z,39.90
2023-04-01T19:06:20.769Z,40.70
2023-04-01T19:07:20.639Z,45.30
2023-04-01T19:08:20.590Z,42.90
2023-04-01T19:09:20.505Z,41.40
2023-04-01T19:10:20.341Z,46.50
2023-04-01T19:11:20.241Z,43.10
2023-04-01T19:12:20.290Z,46.30
2023-04-01T19:13:20.478Z,45.20
2023-04-01T19:14:20.448Z,47.90
2023-04-01T19:15:20.253Z,50.90
2023-04-01T19:16:20.494Z,51.70
2023-04-01T19:17:20.112Z,57.70
2023-04-01T19:18:20.479Z,50.80
2023-04-01T19:19:20.579Z,55.00
2023-04-01T19:20:20.821Z,53.70
2023-04-01T19:21:20.401Z,53.10
2023-04-01T19:22:20.022Z,50.10
2023-04-01T19:23:20.244Z,48.70
2023-04-01T19:24:20.645Z,51.80
2023-04-01T19:25:20.126Z,48.60
2023-04-01T19:26:20.367Z,48.10
2023-04-01T19:27:20.737Z,55.10
2023-04-01T19:28:20.247Z,45.70
2023-04-01T19:29:20.376Z,43.60
2023-04-01T19:30:20.450Z,43.30
2023-04-01T19:31:20.393Z,45.10
2023-04-01T19:32:20.824Z,53.80
2023-04-01T19:33:20.495Z,55.20
2023-04-01T19:34:20.414Z,59.50
2023-04-01T19:35:20.343Z,61.40
2023-04-01T19:36:20.338Z,43.60
2023-04-01T19:37:20.092Z,46.50
2023-04-01T19:38:20.565Z,53.30
2023-04-01T19:39:20.334Z,56.60
2023-04-01T19:40:20.083Z,52.30
2023-04-01T19:41:20.303Z,57.20
2023-04-01T19:42:20.306Z,63.70
2023-04-01T19:43:20.636Z,66.30
2023-04-01T19:44:20.816Z,61.90
2023-04-01T19:45:20.296Z,56.10
2023-04-01T19:46:20.420Z,56.30
2023-04-01T19:47:20.433Z,47.90
2023-04-01T19:48:20.172Z,51.80
2023-04-01T19:49:20.290Z,48.10
2023-04-01T19:50:20.271Z,53.20
2023-04-01T19:51:20.240Z,59.30
2023-04-01T19:52:20.133Z,48.90
2023-04-01T19:53:20.285Z,48.10
2023-04-01T19:54:21.596Z,48.80
2023-04-01T19:55:20.158Z,46.70
2023-04-01T19:56:20.129Z,45.50
2023-04-01T19:57:20.117Z,43.50
2023-04-01T19:58:20.239Z,49.00
2023-04-01T19:59:20.309Z,51.70
2023-04-01T20:00:21.834Z,46.30
2023-04-01T20:01:20.293Z,54.90
2023-04-01T20:02:20.325Z,43.40
2023-04-01T20:03:20.337Z,43.50
2023-04-01T20:04:20.070Z,43.90
2023-04-01T20:05:20.203Z,45.70
2023-04-01T20:06:20.199Z,43.40
2023-04-01T20:07:21.294Z,45.00
2023-04-01T20:08:19.968Z,52.00
2023-04-01T20:09:20.115Z,46.70
2023-04-01T20:10:20.625Z,52.50
2023-04-01T20:11:20.444Z,60.90
2023-04-01T20:12:20.103Z,62.30
2023-04-01T20:13:20.149Z,66.20
2023-04-01T20:14:20.100Z,67.50
2023-04-01T20:15:20.021Z,81.40
2023-04-01T20:16:20.294Z,109.40
2023-04-01T20:17:20.057Z,148.20
2023-04-01T20:18:20.183Z,137.20
2023-04-01T20:19:20.072Z,83.50
2023-04-01T20:20:19.982Z,66.60
2023-04-01T20:21:20.522Z,62.30
2023-04-01T20:22:20.147Z,62.70
2023-04-01T20:23:20.443Z,54.70
2023-04-01T20:24:20.101Z,54.50
2023-04-01T20:27:41.068Z,53.20
2023-04-01T20:28:42.674Z,36.50
2023-04-01T20:33:38.963Z,49.40
2023-04-01T20:34:38.737Z,31.00
2023-04-01T20:35:38.699Z,27.40
2023-04-01T20:36:38.572Z,30.90
2023-04-01T20:37:38.885Z,34.80
2023-04-01T20:38:38.612Z,68.70
2023-04-01T20:39:38.587Z,111.40
2023-04-01T20:40:38.585Z,91.40
2023-04-01T20:41:38.524Z,55.80
2023-04-01T20:42:38.476Z,41.80
2023-04-01T20:43:38.974Z,39.60
2023-04-01T20:44:38.831Z,41.30
2023-04-01T20:45:38.729Z,37.60
2023-04-01T20:46:38.251Z,38.20
2023-04-01T20:47:38.470Z,34.80
2023-04-01T20:48:38.602Z,36.80
2023-04-01T20:49:38.456Z,38.70
2023-04-01T20:50:38.304Z,35.80
2023-04-01T20:51:38.195Z,37.80
2023-04-01T20:52:38.510Z,42.10
2023-04-01T20:53:38.500Z,41.70
2023-04-01T20:54:38.519Z,40.40
2023-04-01T20:55:38.391Z,36.20
2023-04-01T20:56:38.246Z,37.80
2023-04-01T20:57:38.482Z,39.70
2023-04-01T20:58:38.450Z,37.20
2023-04-01T20:59:39.588Z,39.60
2023-04-01T21:00:38.200Z,33.20
2023-04-01T21:01:39.305Z,31.30
2023-04-01T21:02:38.394Z,30.50
2023-04-01T21:03:38.255Z,30.50
2023-04-01T21:04:38.242Z,30.50
2023-04-01T21:05:38.441Z,28.90
2023-04-01T21:06:38.217Z,31.70
2023-04-01T21:07:38.452Z,32.00
2023-04-01T21:08:39.445Z,30.60
2023-04-01T21:09:38.319Z,29.70
2023-04-01T21:10:38.646Z,35.20
2023-04-01T21:15:35.078Z,52.10
2023-04-01T21:16:36.337Z,33.90
2023-04-01T21:17:36.177Z,31.80
2023-04-01T21:18:36.690Z,30.90
2023-04-01T21:19:37.409Z,33.30
2023-04-01T21:20:36.165Z,35.20
2023-04-01T21:21:35.796Z,39.70
2023-04-01T21:22:36.138Z,37.70
2023-04-01T21:23:36.574Z,41.40
2023-04-01T21:24:36.201Z,44.50
2023-04-01T21:25:36.592Z,40.90
2023-04-01T21:26:36.912Z,44.40
2023-04-01T21:27:35.679Z,49.00
2023-04-01T21:28:36.136Z,44.90
2023-04-01T21:31:34.076Z,67.60
2023-04-01T21:32:35.745Z,39.60
2023-04-01T21:33:36.141Z,38.40
2023-04-01T21:34:35.726Z,38.30
2023-04-01T21:35:36.260Z,35.60
2023-04-01T21:36:35.777Z,37.50
2023-04-01T21:37:35.370Z,45.10
2023-04-01T21:38:36.515Z,33.80
2023-04-01T21:39:35.273Z,34.70
2023-04-01T21:40:35.875Z,40.00
2023-04-01T21:41:35.596Z,36.30
2023-04-01T21:42:35.425Z,36.40
2023-04-01T21:43:36.032Z,35.10
2023-04-01T21:44:35.870Z,36.90
2023-04-01T21:45:35.946Z,40.60
2023-04-01T21:46:35.645Z,40.10
2023-04-01T21:47:35.771Z,41.30
2023-04-01T21:48:35.703Z,38.80
2023-04-01T21:49:35.907Z,38.30
2023-04-01T21:50:35.665Z,37.10
2023-04-01T21:51:35.542Z,38.40
2023-04-01T21:52:35.869Z,37.60
2023-04-01T21:53:35.730Z,39.00
2023-04-01T21:54:35.862Z,37.90
2023-04-01T21:55:35.525Z,37.00
2023-04-01T21:56:35.356Z,39.10
2023-04-01T21:57:35.970Z,40.60
2023-04-01T22:00:57.631Z,67.60
2023-04-01T22:01:58.547Z,46.80
2023-04-01T22:02:58.428Z,46.70
2023-04-01T22:03:58.337Z,49.50
2023-04-01T22:04:58.549Z,41.90
2023-04-01T22:05:58.417Z,38.80
2023-04-01T22:06:58.479Z,40.20
2023-04-01T22:07:58.385Z,42.60
2023-04-01T22:08:58.283Z,42.40
2023-04-01T22:09:58.240Z,43.90
2023-04-01T22:12:59.201Z,51.00
2023-04-01T22:14:00.433Z,37.20
2023-04-01T22:15:00.350Z,37.00
2023-04-01T22:16:00.499Z,32.70
2023-04-01T22:17:00.323Z,33.90
2023-04-01T22:18:00.451Z,30.30
2023-04-01T22:19:00.416Z,32.30
2023-04-01T22:20:00.272Z,32.20
2023-04-01T22:21:00.545Z,29.80
2023-04-01T22:22:01.378Z,33.40
2023-04-01T22:23:00.473Z,32.70
2023-04-01T22:24:00.757Z,29.40
2023-04-01T22:25:00.400Z,36.70
2023-04-01T22:26:00.495Z,40.00
2023-04-01T22:27:00.437Z,37.60
2023-04-01T22:28:00.868Z,34.80
2023-04-01T22:29:00.732Z,33.10
2023-04-01T22:30:00.522Z,41.10
2023-04-01T22:31:00.576Z,42.40
2023-04-01T22:32:00.564Z,42.50
2023-04-01T22:33:00.523Z,40.90
2023-04-01T22:34:01.154Z,45.80
2023-04-01T22:35:00.570Z,52.30
2023-04-01T22:36:00.367Z,48.20
2023-04-01T22:37:00.316Z,49.90
2023-04-01T22:38:00.234Z,50.50
2023-04-01T22:39:00.635Z,49.60
2023-04-01T22:40:00.542Z,51.40
2023-04-01T22:41:00.357Z,51.90
2023-04-01T22:42:00.312Z,46.00
2023-04-01T22:43:00.330Z,46.20
2023-04-01T22:44:00.315Z,48.90
2023-04-01T22:45:00.888Z,46.80
2023-04-01T22:46:00.561Z,52.40
2023-04-01T22:47:00.291Z,50.10
2023-04-01T22:48:00.300Z,48.40
2023-04-01T22:49:00.673Z,45.40
2023-04-01T22:50:00.482Z,50.80
2023-04-01T22:51:00.843Z,42.90
2023-04-01T22:57:53.524Z,50.70
2023-04-01T22:58:55.165Z,33.00
2023-04-01T23:02:51.363Z,51.90
2023-04-01T23:06:43.838Z,51.20
2023-04-01T23:16:46.169Z,43.00
2023-04-01T23:29:41.331Z,51.10
2023-04-01T23:30:42.759Z,29.20
2023-04-01T23:39:35.761Z,33.40
2023-04-01T23:43:27.283Z,35.60
2023-04-01T23:48:39.483Z,26.70
2023-04-01T23:59:50.627Z,26.30
